Time;durP1;ratioP1;P1;durP2;ratioP2;P2;SDS_P1;SDS_P2;PMS_P1;PMS_P2;Temp;Humidity;BMP_temperature;BMP_pressure;BME280_temperature;BME280_humidity;BME280_pressure;Samples;Min_cycle;Max_cycle;Signal;HPM_P1;HPM_P2
2021/06/22 00:00:36;;;;;;;8.13;2.47;;;16.30;99.90;;;;;;21065528;28;20715;-77
2021/06/22 00:10:37;;;;;;;;;;;16.30;99.90;;;;;;21065408;28;20505;-77
2021/06/22 00:20:37;;;;;;;6.33;2.83;;;16.40;99.90;;;;;;21064032;28;20031;-78
2021/06/22 00:30:38;;;;;;;7.40;2.80;;;16.40;99.90;;;;;;21088832;28;20369;-78
2021/06/22 00:40:39;;;;;;;8.93;2.30;;;16.30;99.90;;;;;;21076211;28;20521;-78
2021/06/22 00:50:40;;;;;;;6.63;2.30;;;16.40;99.90;;;;;;21121234;28;20052;-78
2021/06/22 01:00:42;;;;;;;4.70;1.90;;;16.50;99.90;;;;;;21085593;28;20430;-78
2021/06/22 01:10:44;;;;;;;5.67;1.90;;;16.60;99.90;;;;;;21103137;28;20115;-78
2021/06/22 01:20:46;;;;;;;3.05;1.58;;;16.60;99.90;;;;;;21106994;28;20043;-78
2021/06/22 01:30:48;;;;;;;3.47;1.88;;;16.60;99.90;;;;;;21102424;28;20481;-78
2021/06/22 01:40:50;;;;;;;3.67;1.60;;;16.40;99.90;;;;;;21089616;28;20032;-78
2021/06/22 01:50:53;;;;;;;4.47;2.58;;;16.50;99.90;;;;;;21091047;28;20406;-78
2021/06/22 02:00:59;;;;;;;8.73;2.33;;;16.60;99.90;;;;;;21088591;28;20097;-78
2021/06/22 02:11:20;;;;;;;7.82;2.90;;;16.50;99.90;;;;;;21089335;28;20503;-78
2021/06/22 02:21:23;;;;;;;5.28;3.15;;;16.50;99.90;;;;;;21068100;28;20060;-77
2021/06/22 02:31:25;;;;;;;6.28;2.67;;;16.30;99.90;;;;;;21082636;28;20032;-78
2021/06/22 02:41:29;;;;;;;10.25;2.80;;;16.30;99.90;;;;;;21099873;28;20173;-78
2021/06/22 02:51:36;;;;;;;6.78;2.38;;;16.20;99.90;;;;;;21084395;28;20044;-76
2021/06/22 03:01:38;;;;;;;;;;;16.20;99.90;;;;;;21062472;28;20040;-77
2021/06/22 03:11:39;;;;;;;3.97;2.53;;;16.10;99.90;;;;;;21079915;28;20393;-77
2021/06/22 03:21:44;;;;;;;4.85;1.98;;;15.90;99.90;;;;;;21065753;28;20056;-74
2021/06/22 03:31:46;;;;;;;5.57;2.45;;;15.90;99.90;;;;;;21053122;28;20040;-75
2021/06/22 03:41:47;;;;;;;3.97;2.27;;;16.00;99.90;;;;;;21066421;28;20406;-75
2021/06/22 03:51:50;;;;;;;4.63;2.10;;;16.00;99.90;;;;;;21066191;28;20032;-75
2021/06/22 04:01:53;;;;;;;4.80;2.03;;;16.00;99.90;;;;;;21079638;28;20051;-74
2021/06/22 04:11:56;;;;;;;7.43;2.50;;;16.00;99.90;;;;;;21065227;28;20068;-74
2021/06/22 04:21:57;;;;;;;5.20;2.50;;;16.20;99.90;;;;;;21064309;28;20405;-74
2021/06/22 04:32:19;;;;;;;7.18;2.50;;;16.10;99.90;;;;;;21080852;28;20090;-74
2021/06/22 04:42:20;;;;;;;9.87;3.20;;;16.20;99.90;;;;;;21078191;28;20522;-74
2021/06/22 04:52:21;;;;;;;4.43;3.30;;;16.20;99.90;;;;;;21077552;28;20049;-75
2021/06/22 05:02:22;;;;;;;8.97;4.57;;;16.00;99.90;;;;;;21068118;28;20051;-74
2021/06/22 05:12:23;;;;;;;6.03;3.90;;;15.80;99.90;;;;;;21064648;28;20071;-75
2021/06/22 05:22:24;;;;;;;5.20;2.30;;;16.00;99.90;;;;;;21074030;28;20069;-75
2021/06/22 05:32:25;;;;;;;4.77;2.17;;;16.30;99.90;;;;;;21076035;28;20792;-74
2021/06/22 05:42:26;;;;;;;5.57;2.50;;;16.30;99.90;;;;;;21076590;28;20047;-75
2021/06/22 05:52:27;;;;;;;7.67;2.43;;;16.30;99.90;;;;;;21076262;28;20441;-75
2021/06/22 06:02:28;;;;;;;5.87;2.93;;;16.50;99.90;;;;;;21056862;28;20058;-75
2021/06/22 06:12:29;;;;;;;8.07;3.03;;;17.10;99.90;;;;;;21056819;28;20513;-74
2021/06/22 06:22:30;;;;;;;5.03;3.33;;;17.10;99.90;;;;;;21063257;22;20659;-77
2021/06/22 06:32:30;;;;;;;6.40;3.07;;;16.90;99.90;;;;;;20989054;28;20041;-76
2021/06/22 06:42:31;;;;;;;6.10;2.97;;;16.80;99.90;;;;;;20990080;28;20128;-77
2021/06/22 06:52:32;;;;;;;6.37;3.17;;;16.90;99.90;;;;;;20989403;28;20063;-77
2021/06/22 07:02:33;;;;;;;5.73;3.13;;;17.20;99.90;;;;;;20989239;28;20067;-77
2021/06/22 07:12:34;;;;;;;5.83;2.97;;;17.20;99.90;;;;;;20996636;28;20036;-77
2021/06/22 07:22:35;;;;;;;6.17;3.90;;;17.10;99.90;;;;;;21003620;28;20032;-76
2021/06/22 07:32:36;;;;;;;4.40;2.60;;;17.20;99.90;;;;;;21003138;28;20570;-77
2021/06/22 07:42:37;;;;;;;8.27;2.73;;;16.90;99.90;;;;;;21002237;28;20064;-77
2021/06/22 07:52:38;;;;;;;6.33;3.30;;;16.50;99.90;;;;;;20998192;28;20529;-77
2021/06/22 08:02:39;;;;;;;4.93;3.10;;;16.40;99.90;;;;;;21003589;28;20060;-77
2021/06/22 08:12:40;;;;;;;6.77;4.13;;;16.50;99.90;;;;;;20999874;28;20037;-77
2021/06/22 08:22:41;;;;;;;7.50;4.60;;;16.50;99.90;;;;;;20998170;28;20036;-77
2021/06/22 08:32:42;;;;;;;7.23;3.73;;;16.30;99.90;;;;;;20997051;28;20064;-77
2021/06/22 08:42:43;;;;;;;5.67;3.47;;;16.20;99.90;;;;;;20997562;28;20075;-77
2021/06/22 08:52:44;;;;;;;5.57;3.30;;;16.20;99.90;;;;;;20995411;28;20055;-76
2021/06/22 09:02:55;;;;;;;5.88;3.53;;;16.10;99.90;;;;;;20994650;28;20033;-76
2021/06/22 09:13:17;;;;;;;6.38;4.00;;;16.10;99.90;;;;;;20995784;28;20040;-77
2021/06/22 09:23:24;;;;;;;10.73;3.80;;;16.20;99.90;;;;;;20993556;28;20044;-78
2021/06/22 09:33:41;;;;;;;4.53;3.38;;;16.40;99.90;;;;;;20993070;28;20596;-78
2021/06/22 09:44:07;;;;;;;4.35;2.85;;;16.90;99.90;;;;;;21000152;28;20041;-78
2021/06/22 09:54:20;;;;;;;12.73;3.00;;;17.40;99.90;;;;;;20991700;28;20036;-78
2021/06/22 10:04:27;;;;;;;6.47;3.35;;;18.00;99.90;;;;;;20991581;28;20040;-78
2021/06/22 10:14:33;;;;;;;3.85;1.70;;;18.80;99.90;;;;;;20991095;28;20040;-76
2021/06/22 10:24:42;;;;;;;2.88;1.38;;;20.40;99.90;;;;;;20990471;28;20070;-76
2021/06/22 10:34:54;;;;;;;1.60;1.30;;;20.50;99.90;;;;;;20989862;28;20063;-77
2021/06/22 10:44:58;;;;;;;2.80;1.02;;;21.00;99.90;;;;;;20995198;28;20047;-77
2021/06/22 10:54:59;;;;;;;3.42;1.25;;;22.50;99.90;;;;;;21000017;28;20029;-77
2021/06/22 11:05:16;;;;;;;2.73;1.30;;;22.40;99.90;;;;;;20993172;28;20070;-76
2021/06/22 11:15:17;;;;;;;3.50;2.00;;;23.40;99.90;;;;;;20955199;28;20047;-77
2021/06/22 11:25:18;;;;;;;6.50;2.13;;;22.10;99.90;;;;;;20921974;28;20045;-78
2021/06/22 11:35:19;;;;;;;1.70;0.87;;;22.80;99.90;;;;;;20920148;28;20124;-77
2021/06/22 11:45:21;;;;;;;0.73;0.60;;;23.60;99.90;;;;;;20919460;28;20574;-77
2021/06/22 11:55:22;;;;;;;1.67;0.75;;;24.50;99.90;;;;;;20918536;28;20102;-77
2021/06/22 12:05:25;;;;;;;1.17;0.77;;;23.80;99.90;;;;;;20924073;28;20062;-76
2021/06/22 12:15:35;;;;;;;2.17;0.60;;;23.30;99.90;;;;;;20918077;28;20337;-78
2021/06/22 12:25:41;;;;;;;1.20;0.73;;;23.40;99.90;;;;;;20918127;28;20037;-76
2021/06/22 12:35:45;;;;;;;1.70;0.80;;;23.40;99.90;;;;;;20919096;28;20112;-77
2021/06/22 12:46:01;;;;;;;2.22;0.75;;;23.80;99.90;;;;;;20915628;28;20373;-77
2021/06/22 12:56:14;;;;;;;1.75;0.73;;;23.90;99.90;;;;;;20915312;28;20115;-76
2021/06/22 13:06:25;;;;;;;0.90;0.70;;;23.80;99.90;;;;;;20912804;28;20029;-77
2021/06/22 13:16:26;;;;;;;2.38;0.73;;;23.10;99.90;;;;;;20912846;28;20045;-76
2021/06/22 13:26:27;;;;;;;0.70;0.70;;;23.90;99.90;;;;;;20912310;28;20095;-75
2021/06/22 13:36:33;;;;;;;0.70;0.70;;;23.20;99.90;;;;;;21247000;27;20139;-76
2021/06/22 13:46:37;;;;;;;2.13;0.97;;;23.70;99.90;;;;;;21227417;27;20028;-76
2021/06/22 13:56:40;;;;;;;1.38;0.63;;;23.60;99.90;;;;;;21230478;27;20370;-76
2021/06/22 14:06:40;;;;;;;2.38;0.70;;;25.10;99.90;;;;;;21229209;28;20026;-76
2021/06/22 14:16:43;;;;;;;1.13;0.70;;;24.70;99.90;;;;;;21228364;27;20036;-75
2021/06/22 14:26:44;;;;;;;3.97;0.70;;;24.70;99.90;;;;;;21203892;27;20277;-76
2021/06/22 14:36:46;;;;;;;;;;;25.20;99.90;;;;;;21208060;27;20031;-75
2021/06/22 14:46:47;;;;;;;1.80;0.60;;;24.50;99.90;;;;;;21156766;27;20369;-75
2021/06/22 14:56:48;;;;;;;1.02;0.60;;;24.00;99.90;;;;;;21151075;28;20048;-79
2021/06/22 15:06:49;;;;;;;1.50;0.60;;;24.40;99.90;;;;;;21153965;28;20163;-78
2021/06/22 15:16:50;;;;;;;;;;;24.90;99.90;;;;;;21152163;28;20293;-78
2021/06/22 15:26:51;;;;;;;0.82;0.50;;;24.60;99.90;;;;;;21151707;28;19957;-75
2021/06/22 15:36:52;;;;;;;1.50;0.53;;;24.50;99.90;;;;;;21146335;28;20085;-74
2021/06/22 15:46:52;;;;;;;2.83;0.63;;;23.60;99.90;;;;;;21144710;28;20039;-75
2021/06/22 15:56:53;;;;;;;1.07;0.50;;;23.30;99.90;;;;;;21143907;28;20019;-75
2021/06/22 16:06:54;;;;;;;1.77;0.60;;;23.60;99.90;;;;;;21141921;28;20062;-75
2021/06/22 16:16:55;;;;;;;0.47;0.30;;;24.10;99.90;;;;;;21145781;27;20023;-74
2021/06/22 16:26:56;;;;;;;2.10;0.80;;;23.20;99.90;;;;;;21141921;28;20031;-75
2021/06/22 16:36:56;;;;;;;1.00;0.50;;;23.00;99.90;;;;;;21141856;27;20038;-74
2021/06/22 16:46:57;;;;;;;1.70;0.77;;;23.30;99.90;;;;;;21149742;28;20103;-76
2021/06/22 16:56:59;;;;;;;0.60;0.40;;;23.00;99.90;;;;;;21138911;28;20031;-75
2021/06/22 17:07:00;;;;;;;1.10;0.68;;;23.20;99.90;;;;;;21139762;28;20285;-75
2021/06/22 17:17:02;;;;;;;1.87;0.60;;;23.20;99.90;;;;;;21136132;28;20027;-75
2021/06/22 17:27:03;;;;;;;0.80;0.70;;;23.00;99.90;;;;;;21137394;28;20122;-75
2021/06/22 17:37:05;;;;;;;;;;;22.50;99.90;;;;;;21135768;28;20497;-75
2021/06/22 17:47:06;;;;;;;3.60;0.90;;;22.20;99.90;;;;;;21136205;28;19916;-75
2021/06/22 17:57:07;;;;;;;3.27;0.83;;;21.90;99.90;;;;;;21150078;28;20020;-74
2021/06/22 18:07:08;;;;;;;;;;;21.70;99.90;;;;;;21149567;28;20473;-75
2021/06/22 18:17:09;;;;;;;2.33;0.60;;;21.60;99.90;;;;;;21156516;28;19998;-76
2021/06/22 18:27:10;;;;;;;1.60;0.90;;;21.60;99.90;;;;;;21157355;22;20040;-78
2021/06/22 18:37:11;;;;;;;2.72;0.77;;;21.40;99.90;;;;;;21043161;28;20033;-79
2021/06/22 18:47:12;;;;;;;3.40;1.00;;;20.90;99.90;;;;;;21002623;28;20040;-79
2021/06/22 18:57:13;;;;;;;7.53;1.02;;;20.70;99.90;;;;;;20995089;28;20547;-79
2021/06/22 19:07:15;;;;;;;1.60;0.80;;;20.70;99.90;;;;;;21006052;28;20035;-77
2021/06/22 19:17:16;;;;;;;2.35;1.02;;;20.40;99.90;;;;;;20997382;28;20847;-78
2021/06/22 19:27:17;;;;;;;3.43;1.00;;;20.30;99.90;;;;;;21013750;28;20040;-79
2021/06/22 19:37:18;;;;;;;3.10;1.20;;;20.30;99.90;;;;;;21055335;28;20032;-78
2021/06/22 19:47:19;;;;;;;11.63;1.52;;;19.90;99.90;;;;;;20994682;28;20037;-80
2021/06/22 19:57:20;;;;;;;6.67;1.10;;;19.70;99.90;;;;;;21009759;28;20497;-78
2021/06/22 20:07:21;;;;;;;3.10;0.97;;;19.40;99.90;;;;;;21017626;28;20059;-79
2021/06/22 20:17:23;;;;;;;1.60;1.30;;;19.70;99.90;;;;;;21020815;28;20050;-79
2021/06/22 20:27:24;;;;;;;1.33;1.00;;;19.20;99.90;;;;;;21017654;28;20082;-80
2021/06/22 20:37:25;;;;;;;2.87;1.30;;;19.20;99.90;;;;;;20999111;28;20074;-80
2021/06/22 20:47:26;;;;;;;6.57;1.63;;;19.10;99.90;;;;;;21011363;28;20043;-78
2021/06/22 20:57:27;;;;;;;2.65;1.27;;;18.50;99.90;;;;;;21040119;28;20036;-78
2021/06/22 21:07:28;;;;;;;6.77;1.83;;;18.50;99.90;;;;;;21076592;28;20516;-79
2021/06/22 21:17:29;;;;;;;2.00;1.50;;;18.60;99.90;;;;;;21023866;28;20035;-78
2021/06/22 21:27:30;;;;;;;2.10;1.57;;;18.60;99.90;;;;;;21037170;28;20600;-78
2021/06/22 21:37:31;;;;;;;3.23;1.80;;;18.50;99.90;;;;;;21031193;28;20037;-77
2021/06/22 21:47:32;;;;;;;9.10;4.80;;;18.20;99.90;;;;;;21024889;28;20054;-77
2021/06/22 21:57:33;;;;;;;8.07;1.15;;;18.30;99.90;;;;;;20987565;28;20051;-77
2021/06/22 22:07:34;;;;;;;3.13;2.20;;;18.30;99.90;;;;;;20985587;28;20028;-77
2021/06/22 22:17:35;;;;;;;6.10;2.20;;;17.60;99.90;;;;;;21060131;28;20027;-77
2021/06/22 22:27:37;;;;;;;4.27;3.30;;;17.40;99.90;;;;;;21056464;28;20020;-77
2021/06/22 22:37:38;;;;;;;6.38;2.45;;;17.40;99.90;;;;;;21016661;28;20115;-77
2021/06/22 22:47:39;;;;;;;7.33;2.50;;;17.20;99.90;;;;;;21012408;28;20086;-77
2021/06/22 22:57:40;;;;;;;3.33;2.30;;;17.30;99.90;;;;;;20983459;28;20028;-77
2021/06/22 23:07:41;;;;;;;2.50;2.10;;;17.40;99.90;;;;;;21034489;28;20070;-77
2021/06/22 23:17:42;;;;;;;7.07;1.60;;;17.50;99.90;;;;;;20999657;28;20059;-77
2021/06/22 23:27:43;;;;;;;3.53;1.88;;;17.60;99.90;;;;;;20998752;28;20082;-77
2021/06/22 23:37:44;;;;;;;6.67;1.77;;;17.50;99.90;;;;;;20997997;28;20037;-78
2021/06/22 23:47:45;;;;;;;3.72;1.98;;;17.50;99.90;;;;;;20997272;28;20050;-78
2021/06/22 23:57:46;;;;;;;4.47;1.00;;;17.30;99.90;;;;;;20996647;28;20463;-77
